Flight Track Log - Related Links

Times and Time Zones

All times are in EST time to prevent confusion due to time zone crossing. See the EJA922 flight status page for this flight to view local times or setup timezone preferences in your user account.

Time Position Orientation Groundspeed Altitude Reporting Facility
EST Latitude Longitude Course Direction KTS MPH feet Rate Location/Type
Sat 05:30:54 PM 33.6167 -112.0000 265° West 227 261 6,900  Level Phoenix TRACON
Sat 05:31:54 PM 33.6167 -112.1000 270° West 285 328 7,900 1,957 Climbing Phoenix TRACON
Sat 05:33:12 PM 33.6122 -112.2250 268° West 301 346 11,400 2,186 Climbing Albuquerque Center
Sat 05:34:14 PM 33.5819 -112.3364 252° West 348 400 13,000 2,098 Climbing Albuquerque Center
Sat 05:35:15 PM 33.5508 -112.4572 253° West 377 434 15,700 2,341 Climbing Albuquerque Center
Sat 05:36:17 PM 33.5178 -112.5783 252° West 380 437 17,800 2,049 Climbing Albuquerque Center
Sat 05:37:18 PM 33.4839 -112.7119 253° West 391 450 19,900 2,000 Climbing Albuquerque Center
Sat 05:38:20 PM 33.4583 -112.8414 257° West 403 464 21,900 1,856 Climbing Albuquerque Center
Sat 05:40:19 PM 33.5086 -113.1078 283° West 417 480 25,500 1,956 Climbing Los Angeles Center
Sat 05:41:21 PM 33.5347 -113.2433 283° West 420 483 27,800 2,081 Climbing Los Angeles Center
Sat 05:42:23 PM 33.5603 -113.3719 283° West 414 476 29,800 1,306 Climbing Los Angeles Center
Sat 05:43:25 PM 33.5908 -113.5400 282° West 426 490 30,500 857 Climbing Los Angeles Center
Sat 05:44:29 PM 33.6178 -113.6869 282° West 446 513 31,600 720 Climbing Albuquerque Center
Sat 05:45:30 PM 33.6417 -113.8408 281° West 461 531 32,000 195 Climbing Albuquerque Center
Sat 05:46:32 PM 33.6567 -113.9986 277° West 472 543 32,000  Level Albuquerque Center
Sat 05:47:33 PM 33.6711 -114.1558 276° West 474 545 32,000  Level Albuquerque Center
Sat 05:48:35 PM 33.6872 -114.3169 277° West 476 548 32,000  Level Albuquerque Center
Sat 05:49:38 PM 33.7058 -114.5014 277° West 476 548 32,000  Level Los Angeles Center
Sat 05:50:40 PM 33.7217 -114.6589 277° West 476 548 32,000  Level Los Angeles Center
Sat 05:51:42 PM 33.7350 -114.8161 276° West 476 548 32,000  Level Los Angeles Center
Sat 05:52:44 PM 33.7500 -114.9722 277° West 474 545 32,000  Level Los Angeles Center
Sat 05:53:46 PM 33.7631 -115.1292 276° West 474 545 32,000  Level Los Angeles Center
Sat 05:54:48 PM 33.7800 -115.3181 276° West 476 548 32,000  Level Los Angeles Center
Sat 05:56:02 PM 33.7936 -115.4767 276° West 478 550 32,000  Level Los Angeles Center
Sat 05:57:04 PM 33.8081 -115.6625 275° West 470 541 32,000  Level Los Angeles Center
Sat 05:58:06 PM 33.8214 -115.8200 276° West 472 543 32,000 -726 Level Los Angeles Center
Sat 05:59:08 PM 33.8350 -115.9786 276° West 477 549 30,500 -1,355 Descending Los Angeles Center
Sat 06:00:10 PM 33.8489 -116.1656 275° West 473 544 29,200 -2,352 Descending Los Angeles Center
Sat 06:01:13 PM 33.8622 -116.3214 276° West 471 542 25,600 -3,264 Descending Los Angeles Center
Sat 06:02:15 PM 33.8711 -116.4767 274° West 468 539 22,400 -3,194 Descending Los Angeles Center
Sat 06:03:17 PM 33.8786 -116.6253 274° West 452 520 19,000 -3,145 Descending Los Angeles Center
Sat 06:04:19 PM 33.8858 -116.7714 273° West 442 509 15,900 -2,803 Descending Los Angeles Center
Sat 06:05:19 PM 33.8833 -116.9333 269° West 425 489 13,300 -2,244 Descending Southern California TRACON
Sat 06:06:22 PM 33.8600 -117.0469 256° West 421 484 11,300 -1,476 Descending Los Angeles Center
Sat 06:07:25 PM 33.8425 -117.1742 261° West 369 425 10,200 -1,179 Descending Los Angeles Center
Sat 06:08:19 PM 33.8333 -117.2833 264° West 293 337 9,000 -1,158 Descending Southern California TRACON
Sat 06:09:19 PM 33.8167 -117.3667 256° West 287 330 8,000 -450 Descending Southern California TRACON
Sat 06:10:19 PM 33.8000 -117.4500 256° West 226 260 8,100  Climbing Southern California TRACON
Sat 06:11:19 PM 33.8000 -117.5333 270° West 236 272 8,000 -450 Descending Southern California TRACON
Sat 06:12:19 PM 33.8000 -117.6000 270° West 216 249 7,200 -992 Descending Southern California TRACON
Sat 06:13:20 PM 33.8000 -117.6667 270° West 209 241 6,000 -1,091 Descending Southern California TRACON
Sat 06:14:20 PM 33.8500 -117.7000 331° Northwest 179 206 5,000 -1,050 Descending Southern California TRACON
Sat 06:15:20 PM 33.8500 -117.7500 270° West 187 215 3,900 -1,000 Descending Southern California TRACON
Sat 06:16:20 PM 33.8167 -117.7833 220° Southwest 162 186 3,000 -843 Descending Southern California TRACON
Sat 06:17:21 PM 33.7833 -117.8000 203° Southwest 152 175 2,200 -744 Descending Southern California TRACON
Sat 06:18:21 PM 33.7500 -117.8167 203° Southwest 136 157 1,500 -700 Descending Southern California TRACON
Sat 06:19:21 PM 33.7167 -117.8500 220° Southwest 133 153 800 -700 Descending Southern California TRACON
Sat 06:22:00 PM 33.6757 -117.8682 132° Southeast  Level Estimated
Sat 06:29:00 PM 33.6757 -117.8682 132° Southeast  Level Estimated

Login

Don't have an account? Register now (free) for customized features, flight alerts, and more!